sensor_id;sensor_type;location;lat;lon;timestamp;pressure;altitude;pressure_sealevel;temperature;humidity
13367;BME280;6752;52.612;13.630;2023-02-16T00:01:01;101706.75;;;-0.60;100.00
13367;BME280;6752;52.612;13.630;2023-02-16T00:06:03;101697.08;;;-0.62;100.00
13367;BME280;6752;52.612;13.630;2023-02-16T00:11:09;101695.53;;;-0.54;100.00
13367;BME280;6752;52.612;13.630;2023-02-16T00:16:25;101699.36;;;-0.52;100.00
13367;BME280;6752;52.612;13.630;2023-02-16T00:21:28;101702.02;;;-0.68;100.00
13367;BME280;6752;52.612;13.630;2023-02-16T00:26:30;101705.61;;;-0.68;100.00
13367;BME280;6752;52.612;13.630;2023-02-16T00:31:35;101711.11;;;-0.42;100.00
13367;BME280;6752;52.612;13.630;2023-02-16T00:36:37;101712.91;;;-0.32;100.00
13367;BME280;6752;52.612;13.630;2023-02-16T00:41:39;101711.98;;;-0.47;100.00
13367;BME280;6752;52.612;13.630;2023-02-16T00:46:53;101721.01;;;-0.32;100.00
13367;BME280;6752;52.612;13.630;2023-02-16T00:51:56;101712.92;;;-0.48;100.00
13367;BME280;6752;52.612;13.630;2023-02-16T00:56:58;101709.60;;;-0.45;100.00
13367;BME280;6752;52.612;13.630;2023-02-16T01:02:00;101709.60;;;-0.57;100.00
13367;BME280;6752;52.612;13.630;2023-02-16T01:07:05;101708.20;;;-0.56;100.00
13367;BME280;6752;52.612;13.630;2023-02-16T01:12:22;101714.34;;;-0.71;100.00
13367;BME280;6752;52.612;13.630;2023-02-16T01:17:24;101710.09;;;-0.74;100.00
13367;BME280;6752;52.612;13.630;2023-02-16T01:22:27;101704.75;;;-0.63;100.00
13367;BME280;6752;52.612;13.630;2023-02-16T01:27:29;101704.56;;;-0.60;100.00
13367;BME280;6752;52.612;13.630;2023-02-16T01:32:32;101700.06;;;-0.77;100.00
13367;BME280;6752;52.612;13.630;2023-02-16T01:37:53;101689.25;;;-0.86;100.00
13367;BME280;6752;52.612;13.630;2023-02-16T01:43:15;101676.64;;;-0.80;100.00
13367;BME280;6752;52.612;13.630;2023-02-16T01:48:26;101680.61;;;-0.84;100.00
13367;BME280;6752;52.612;13.630;2023-02-16T01:53:32;101677.63;;;-0.86;100.00
13367;BME280;6752;52.612;13.630;2023-02-16T01:58:51;101686.75;;;-0.83;100.00
13367;BME280;6752;52.612;13.630;2023-02-16T02:03:53;101677.08;;;-1.02;100.00
13367;BME280;6752;52.612;13.630;2023-02-16T02:09:27;101680.31;;;-0.92;100.00
13367;BME280;6752;52.612;13.630;2023-02-16T02:14:24;101673.66;;;-0.98;100.00
13367;BME280;6752;52.612;13.630;2023-02-16T02:19:21;101678.67;;;-0.94;100.00
13367;BME280;6752;52.612;13.630;2023-02-16T02:30:18;101666.27;;;-0.95;100.00
13367;BME280;6752;52.612;13.630;2023-02-16T02:40:47;101664.92;;;-1.17;100.00
13367;BME280;6752;52.612;13.630;2023-02-16T02:45:55;101668.14;;;-1.13;100.00
13367;BME280;6752;52.612;13.630;2023-02-16T02:51:10;101670.06;;;-1.20;100.00
13367;BME280;6752;52.612;13.630;2023-02-16T02:56:29;101663.92;;;-1.21;100.00
13367;BME280;6752;52.612;13.630;2023-02-16T03:01:52;101651.28;;;-1.25;100.00
13367;BME280;6752;52.612;13.630;2023-02-16T03:06:54;101647.63;;;-0.96;100.00
13367;BME280;6752;52.612;13.630;2023-02-16T03:11:56;101648.19;;;-1.09;100.00
13367;BME280;6752;52.612;13.630;2023-02-16T03:17:10;101649.75;;;-0.95;100.00
13367;BME280;6752;52.612;13.630;2023-02-16T03:22:30;101656.27;;;-0.98;100.00
13367;BME280;6752;52.612;13.630;2023-02-16T03:27:51;101643.58;;;-1.18;100.00
13367;BME280;6752;52.612;13.630;2023-02-16T03:33:11;101650.00;;;-1.20;100.00
13367;BME280;6752;52.612;13.630;2023-02-16T03:38:14;101653.92;;;-1.13;100.00
13367;BME280;6752;52.612;13.630;2023-02-16T03:43:16;101645.10;;;-1.14;100.00
13367;BME280;6752;52.612;13.630;2023-02-16T03:48:18;101652.03;;;-1.12;100.00
13367;BME280;6752;52.612;13.630;2023-02-16T03:53:21;101641.80;;;-0.90;100.00
13367;BME280;6752;52.612;13.630;2023-02-16T03:58:24;101641.65;;;-0.28;100.00
13367;BME280;6752;52.612;13.630;2023-02-16T04:03:26;101651.66;;;-0.47;100.00
13367;BME280;6752;52.612;13.630;2023-02-16T04:08:28;101646.30;;;0.02;100.00
13367;BME280;6752;52.612;13.630;2023-02-16T04:13:30;101654.70;;;0.23;100.00
13367;BME280;6752;52.612;13.630;2023-02-16T04:18:32;101668.70;;;0.06;100.00
13367;BME280;6752;52.612;13.630;2023-02-16T04:23:34;101669.44;;;-0.13;100.00
13367;BME280;6752;52.612;13.630;2023-02-16T04:28:36;101666.17;;;-0.07;100.00
13367;BME280;6752;52.612;13.630;2023-02-16T04:33:39;101664.67;;;0.17;100.00
13367;BME280;6752;52.612;13.630;2023-02-16T04:38:41;101665.03;;;0.18;100.00
13367;BME280;6752;52.612;13.630;2023-02-16T04:43:44;101669.67;;;0.15;100.00
13367;BME280;6752;52.612;13.630;2023-02-16T04:48:46;101676.41;;;0.10;100.00
13367;BME280;6752;52.612;13.630;2023-02-16T04:53:48;101672.59;;;0.08;100.00
13367;BME280;6752;52.612;13.630;2023-02-16T04:58:51;101668.77;;;0.00;100.00
13367;BME280;6752;52.612;13.630;2023-02-16T05:03:53;101664.31;;;-0.01;100.00
13367;BME280;6752;52.612;13.630;2023-02-16T05:08:55;101665.13;;;-0.05;100.00
13367;BME280;6752;52.612;13.630;2023-02-16T05:13:58;101664.41;;;-0.07;100.00
13367;BME280;6752;52.612;13.630;2023-02-16T05:19:18;101666.08;;;0.00;100.00
13367;BME280;6752;52.612;13.630;2023-02-16T05:24:20;101676.73;;;-0.10;100.00
13367;BME280;6752;52.612;13.630;2023-02-16T05:29:22;101677.92;;;-0.24;100.00
13367;BME280;6752;52.612;13.630;2023-02-16T05:34:25;101676.31;;;-0.32;100.00
13367;BME280;6752;52.612;13.630;2023-02-16T05:39:27;101668.89;;;-0.02;100.00
13367;BME280;6752;52.612;13.630;2023-02-16T05:44:30;101665.38;;;-0.18;100.00
13367;BME280;6752;52.612;13.630;2023-02-16T05:49:32;101673.61;;;-0.26;100.00
13367;BME280;6752;52.612;13.630;2023-02-16T05:54:34;101667.47;;;-0.22;100.00
13367;BME280;6752;52.612;13.630;2023-02-16T05:59:37;101663.84;;;-0.16;100.00
13367;BME280;6752;52.612;13.630;2023-02-16T06:04:39;101671.67;;;-0.30;100.00
13367;BME280;6752;52.612;13.630;2023-02-16T06:09:42;101685.35;;;-0.17;100.00
13367;BME280;6752;52.612;13.630;2023-02-16T06:14:44;101676.09;;;-0.24;100.00
13367;BME280;6752;52.612;13.630;2023-02-16T06:19:46;101669.70;;;-0.06;100.00
13367;BME280;6752;52.612;13.630;2023-02-16T06:24:49;101680.31;;;-0.21;100.00
13367;BME280;6752;52.612;13.630;2023-02-16T06:29:51;101687.97;;;-0.16;100.00
13367;BME280;6752;52.612;13.630;2023-02-16T06:34:54;101690.69;;;-0.11;100.00
13367;BME280;6752;52.612;13.630;2023-02-16T06:39:56;101685.86;;;-0.23;100.00
13367;BME280;6752;52.612;13.630;2023-02-16T06:44:58;101684.41;;;-0.11;100.00
13367;BME280;6752;52.612;13.630;2023-02-16T06:50:01;101695.18;;;-0.22;100.00
13367;BME280;6752;52.612;13.630;2023-02-16T06:55:03;101690.06;;;-0.09;100.00
13367;BME280;6752;52.612;13.630;2023-02-16T07:00:06;101693.92;;;-0.12;100.00
13367;BME280;6752;52.612;13.630;2023-02-16T07:05:08;101698.13;;;0.07;100.00
13367;BME280;6752;52.612;13.630;2023-02-16T07:10:10;101695.61;;;0.26;100.00
13367;BME280;6752;52.612;13.630;2023-02-16T07:15:13;101683.08;;;0.52;100.00
13367;BME280;6752;52.612;13.630;2023-02-16T07:20:15;101677.56;;;0.64;100.00
13367;BME280;6752;52.612;13.630;2023-02-16T07:25:18;101682.48;;;0.85;100.00
13367;BME280;6752;52.612;13.630;2023-02-16T07:30:20;101667.69;;;1.06;100.00
13367;BME280;6752;52.612;13.630;2023-02-16T07:35:22;101665.31;;;1.17;100.00
13367;BME280;6752;52.612;13.630;2023-02-16T07:40:29;101656.80;;;1.22;100.00
13367;BME280;6752;52.612;13.630;2023-02-16T07:45:28;101656.23;;;1.24;100.00
13367;BME280;6752;52.612;13.630;2023-02-16T07:50:30;101650.86;;;1.44;100.00
13367;BME280;6752;52.612;13.630;2023-02-16T07:55:37;101655.19;;;1.65;100.00
13367;BME280;6752;52.612;13.630;2023-02-16T08:00:35;101652.03;;;1.80;100.00
13367;BME280;6752;52.612;13.630;2023-02-16T08:05:38;101645.75;;;1.99;100.00
13367;BME280;6752;52.612;13.630;2023-02-16T08:10:40;101646.64;;;2.28;100.00
13367;BME280;6752;52.612;13.630;2023-02-16T08:15:42;101650.09;;;2.96;100.00
13367;BME280;6752;52.612;13.630;2023-02-16T08:20:45;101651.77;;;2.88;100.00
13367;BME280;6752;52.612;13.630;2023-02-16T08:25:47;101655.95;;;3.46;100.00
13367;BME280;6752;52.612;13.630;2023-02-16T08:30:49;101650.59;;;3.73;100.00
13367;BME280;6752;52.612;13.630;2023-02-16T08:35:52;101637.22;;;4.20;100.00
13367;BME280;6752;52.612;13.630;2023-02-16T08:40:54;101627.28;;;4.43;100.00
13367;BME280;6752;52.612;13.630;2023-02-16T08:45:57;101638.05;;;4.73;100.00
13367;BME280;6752;52.612;13.630;2023-02-16T08:50:59;101639.77;;;5.63;100.00
13367;BME280;6752;52.612;13.630;2023-02-16T08:56:02;101633.13;;;5.95;100.00
13367;BME280;6752;52.612;13.630;2023-02-16T09:01:04;101613.05;;;6.86;100.00
13367;BME280;6752;52.612;13.630;2023-02-16T09:06:06;101619.77;;;6.87;100.00
13367;BME280;6752;52.612;13.630;2023-02-16T09:11:13;101626.83;;;7.43;100.00
13367;BME280;6752;52.612;13.630;2023-02-16T09:16:12;101622.73;;;7.90;100.00
13367;BME280;6752;52.612;13.630;2023-02-16T09:21:14;101603.22;;;8.69;100.00
13367;BME280;6752;52.612;13.630;2023-02-16T09:26:16;101603.88;;;8.93;100.00
13367;BME280;6752;52.612;13.630;2023-02-16T09:31:19;101611.05;;;8.50;100.00
13367;BME280;6752;52.612;13.630;2023-02-16T09:36:23;101606.69;;;8.44;100.00
13367;BME280;6752;52.612;13.630;2023-02-16T09:41:49;101612.45;;;9.16;100.00
13367;BME280;6752;52.612;13.630;2023-02-16T09:46:51;101605.77;;;9.87;99.72
13367;BME280;6752;52.612;13.630;2023-02-16T09:51:57;101606.83;;;9.97;95.97
13367;BME280;6752;52.612;13.630;2023-02-16T09:57:07;101603.00;;;10.02;94.24
13367;BME280;6752;52.612;13.630;2023-02-16T10:02:24;101606.39;;;10.07;92.60
13367;BME280;6752;52.612;13.630;2023-02-16T10:12:39;101597.30;;;11.23;87.33
13367;BME280;6752;52.612;13.630;2023-02-16T10:17:47;101602.67;;;11.10;83.98
13367;BME280;6752;52.612;13.630;2023-02-16T10:22:50;101596.16;;;11.58;81.37
13367;BME280;6752;52.612;13.630;2023-02-16T10:27:53;101595.79;;;11.68;81.74
13367;BME280;6752;52.612;13.630;2023-02-16T10:32:56;101600.09;;;11.36;78.42
13367;BME280;6752;52.612;13.630;2023-02-16T10:38:00;101603.05;;;11.38;82.74
13367;BME280;6752;52.612;13.630;2023-02-16T10:43:10;101600.11;;;10.98;80.33
13367;BME280;6752;52.612;13.630;2023-02-16T10:48:08;101590.03;;;10.81;80.48
13367;BME280;6752;52.612;13.630;2023-02-16T10:58:38;101569.81;;;11.98;75.64
13367;BME280;6752;52.612;13.630;2023-02-16T11:03:58;101564.13;;;12.63;75.62
13367;BME280;6752;52.612;13.630;2023-02-16T11:08:52;101569.70;;;12.65;73.41
13367;BME280;6752;52.612;13.630;2023-02-16T11:14:00;101557.56;;;12.77;70.89
13367;BME280;6752;52.612;13.630;2023-02-16T11:19:21;101561.83;;;12.00;72.39
13367;BME280;6752;52.612;13.630;2023-02-16T11:24:33;101556.41;;;13.50;73.29
13367;BME280;6752;52.612;13.630;2023-02-16T11:29:33;101555.52;;;12.29;70.29
13367;BME280;6752;52.612;13.630;2023-02-16T11:34:39;101549.28;;;12.68;70.23
13367;BME280;6752;52.612;13.630;2023-02-16T11:39:39;101549.41;;;12.60;68.89
13367;BME280;6752;52.612;13.630;2023-02-16T11:44:41;101533.78;;;12.16;70.99
13367;BME280;6752;52.612;13.630;2023-02-16T11:49:43;101542.53;;;11.75;70.37
13367;BME280;6752;52.612;13.630;2023-02-16T11:54:58;101539.84;;;11.41;72.84
13367;BME280;6752;52.612;13.630;2023-02-16T12:00:00;101532.09;;;11.88;74.68
13367;BME280;6752;52.612;13.630;2023-02-16T12:10:37;101524.93;;;11.37;74.21
13367;BME280;6752;52.612;13.630;2023-02-16T12:15:50;101528.72;;;11.39;74.92
13367;BME280;6752;52.612;13.630;2023-02-16T12:21:15;101516.13;;;11.51;73.66
13367;BME280;6752;52.612;13.630;2023-02-16T12:26:30;101510.46;;;11.56;74.13
13367;BME280;6752;52.612;13.630;2023-02-16T12:31:44;101504.31;;;11.34;73.12
13367;BME280;6752;52.612;13.630;2023-02-16T12:46:59;101510.55;;;11.39;76.66
13367;BME280;6752;52.612;13.630;2023-02-16T12:52:03;101509.62;;;11.49;75.43
13367;BME280;6752;52.612;13.630;2023-02-16T12:57:06;101506.40;;;11.63;77.63
13367;BME280;6752;52.612;13.630;2023-02-16T13:02:54;101500.80;;;11.53;76.11
13367;BME280;6752;52.612;13.630;2023-02-16T13:07:30;101496.21;;;11.61;77.00
13367;BME280;6752;52.612;13.630;2023-02-16T13:12:36;101493.02;;;11.37;76.35
13367;BME280;6752;52.612;13.630;2023-02-16T13:17:55;101480.84;;;11.46;74.84
13367;BME280;6752;52.612;13.630;2023-02-16T13:33:43;101471.77;;;11.80;73.19
13367;BME280;6752;52.612;13.630;2023-02-16T13:39:00;101472.41;;;11.92;73.74
13367;BME280;6752;52.612;13.630;2023-02-16T13:44:01;101467.66;;;12.06;74.45
13367;BME280;6752;52.612;13.630;2023-02-16T13:48:59;101471.54;;;12.21;72.54
13367;BME280;6752;52.612;13.630;2023-02-16T13:54:02;101463.55;;;12.23;72.11
13367;BME280;6752;52.612;13.630;2023-02-16T14:09:31;101471.86;;;12.32;73.21
13367;BME280;6752;52.612;13.630;2023-02-16T14:19:59;101468.30;;;11.98;75.17
13367;BME280;6752;52.612;13.630;2023-02-16T14:25:02;101466.73;;;11.96;75.98
13367;BME280;6752;52.612;13.630;2023-02-16T14:30:03;101467.13;;;12.03;76.32
13367;BME280;6752;52.612;13.630;2023-02-16T14:40:17;101469.34;;;12.01;77.17
13367;BME280;6752;52.612;13.630;2023-02-16T14:49:58;101468.84;;;11.88;77.62
13367;BME280;6752;52.612;13.630;2023-02-16T15:05:30;101467.33;;;11.69;81.17
13367;BME280;6752;52.612;13.630;2023-02-16T15:10:33;101467.09;;;11.57;82.64
13367;BME280;6752;52.612;13.630;2023-02-16T15:15:45;101455.75;;;11.40;83.43
13367;BME280;6752;52.612;13.630;2023-02-16T15:20:48;101457.84;;;11.38;82.70
13367;BME280;6752;52.612;13.630;2023-02-16T15:25:53;101461.48;;;11.35;82.74
13367;BME280;6752;52.612;13.630;2023-02-16T15:30:56;101462.64;;;11.33;81.79
13367;BME280;6752;52.612;13.630;2023-02-16T15:35:57;101461.91;;;11.35;81.66
13367;BME280;6752;52.612;13.630;2023-02-16T15:41:03;101461.27;;;11.23;82.25
13367;BME280;6752;52.612;13.630;2023-02-16T15:46:05;101447.35;;;11.05;83.88
13367;BME280;6752;52.612;13.630;2023-02-16T15:51:18;101457.63;;;11.00;82.60
13367;BME280;6752;52.612;13.630;2023-02-16T15:56:42;101447.55;;;10.97;81.21
13367;BME280;6752;52.612;13.630;2023-02-16T16:01:41;101443.20;;;10.88;81.25
13367;BME280;6752;52.612;13.630;2023-02-16T16:06:43;101432.38;;;10.84;81.87
13367;BME280;6752;52.612;13.630;2023-02-16T16:11:46;101432.78;;;10.78;81.22
13367;BME280;6752;52.612;13.630;2023-02-16T16:16:48;101436.13;;;10.53;82.53
13367;BME280;6752;52.612;13.630;2023-02-16T16:21:51;101422.73;;;10.58;82.77
13367;BME280;6752;52.612;13.630;2023-02-16T16:26:54;101423.75;;;10.50;83.11
13367;BME280;6752;52.612;13.630;2023-02-16T16:31:55;101428.44;;;10.42;82.74
13367;BME280;6752;52.612;13.630;2023-02-16T16:36:58;101420.16;;;10.26;82.95
13367;BME280;6752;52.612;13.630;2023-02-16T16:47:12;101424.16;;;10.30;83.01
13367;BME280;6752;52.612;13.630;2023-02-16T16:52:26;101413.11;;;10.10;84.28
13367;BME280;6752;52.612;13.630;2023-02-16T16:57:16;101412.72;;;9.96;84.99
13367;BME280;6752;52.612;13.630;2023-02-16T17:02:18;101396.29;;;9.86;85.92
13367;BME280;6752;52.612;13.630;2023-02-16T17:07:20;101400.48;;;9.99;85.27
13367;BME280;6752;52.612;13.630;2023-02-16T17:12:23;101392.39;;;9.95;85.26
13367;BME280;6752;52.612;13.630;2023-02-16T17:17:25;101407.99;;;9.94;85.41
13367;BME280;6752;52.612;13.630;2023-02-16T17:22:27;101412.55;;;9.90;85.40
13367;BME280;6752;52.612;13.630;2023-02-16T17:27:30;101410.11;;;9.98;85.19
13367;BME280;6752;52.612;13.630;2023-02-16T17:32:32;101407.30;;;9.88;85.26
13367;BME280;6752;52.612;13.630;2023-02-16T17:37:35;101410.98;;;9.74;87.21
13367;BME280;6752;52.612;13.630;2023-02-16T17:42:37;101414.20;;;9.60;89.04
13367;BME280;6752;52.612;13.630;2023-02-16T17:47:41;101414.48;;;9.54;91.70
13367;BME280;6752;52.612;13.630;2023-02-16T17:52:42;101421.41;;;9.35;93.77
13367;BME280;6752;52.612;13.630;2023-02-16T17:57:44;101421.67;;;9.08;94.88
13367;BME280;6752;52.612;13.630;2023-02-16T18:02:46;101422.73;;;9.11;96.04
13367;BME280;6752;52.612;13.630;2023-02-16T18:07:49;101414.47;;;9.22;96.21
13367;BME280;6752;52.612;13.630;2023-02-16T18:12:51;101419.53;;;9.14;95.39
13367;BME280;6752;52.612;13.630;2023-02-16T18:17:54;101415.09;;;9.10;97.26
13367;BME280;6752;52.612;13.630;2023-02-16T18:22:56;101412.92;;;9.13;96.66
13367;BME280;6752;52.612;13.630;2023-02-16T18:27:58;101412.41;;;8.95;98.29
13367;BME280;6752;52.612;13.630;2023-02-16T18:33:01;101406.52;;;8.99;98.87
13367;BME280;6752;52.612;13.630;2023-02-16T18:38:03;101406.98;;;8.95;99.34
13367;BME280;6752;52.612;13.630;2023-02-16T18:43:05;101407.72;;;8.97;99.18
13367;BME280;6752;52.612;13.630;2023-02-16T18:48:12;101408.20;;;9.00;100.00
13367;BME280;6752;52.612;13.630;2023-02-16T18:53:14;101412.77;;;9.07;99.67
13367;BME280;6752;52.612;13.630;2023-02-16T18:58:16;101399.36;;;9.16;98.42
13367;BME280;6752;52.612;13.630;2023-02-16T19:03:19;101400.36;;;9.12;98.58
13367;BME280;6752;52.612;13.630;2023-02-16T19:08:21;101399.86;;;9.02;99.62
13367;BME280;6752;52.612;13.630;2023-02-16T19:13:23;101399.83;;;8.91;100.00
13367;BME280;6752;52.612;13.630;2023-02-16T19:18:26;101396.94;;;8.96;100.00
13367;BME280;6752;52.612;13.630;2023-02-16T19:23:28;101392.02;;;9.03;99.68
13367;BME280;6752;52.612;13.630;2023-02-16T19:28:30;101397.33;;;9.00;100.00
13367;BME280;6752;52.612;13.630;2023-02-16T19:33:33;101398.81;;;9.03;100.00
13367;BME280;6752;52.612;13.630;2023-02-16T19:38:36;101399.75;;;9.02;100.00
13367;BME280;6752;52.612;13.630;2023-02-16T19:43:38;101405.22;;;9.06;100.00
13367;BME280;6752;52.612;13.630;2023-02-16T19:48:40;101414.91;;;9.01;100.00
13367;BME280;6752;52.612;13.630;2023-02-16T19:53:42;101397.69;;;8.97;100.00
13367;BME280;6752;52.612;13.630;2023-02-16T19:58:45;101409.92;;;9.04;100.00
13367;BME280;6752;52.612;13.630;2023-02-16T20:03:47;101405.39;;;8.93;100.00
13367;BME280;6752;52.612;13.630;2023-02-16T20:08:50;101395.12;;;9.00;100.00
13367;BME280;6752;52.612;13.630;2023-02-16T20:13:52;101393.37;;;8.95;100.00
13367;BME280;6752;52.612;13.630;2023-02-16T20:18:55;101388.94;;;9.09;100.00
13367;BME280;6752;52.612;13.630;2023-02-16T20:24:01;101390.34;;;9.02;100.00
13367;BME280;6752;52.612;13.630;2023-02-16T20:28:59;101390.21;;;8.91;100.00
13367;BME280;6752;52.612;13.630;2023-02-16T20:34:01;101387.55;;;8.98;100.00
13367;BME280;6752;52.612;13.630;2023-02-16T20:39:04;101374.09;;;8.90;100.00
13367;BME280;6752;52.612;13.630;2023-02-16T20:44:06;101384.32;;;8.88;100.00
13367;BME280;6752;52.612;13.630;2023-02-16T20:49:11;101382.31;;;8.86;100.00
13367;BME280;6752;52.612;13.630;2023-02-16T20:54:13;101385.45;;;8.86;100.00
13367;BME280;6752;52.612;13.630;2023-02-16T20:59:15;101380.14;;;8.78;100.00
13367;BME280;6752;52.612;13.630;2023-02-16T21:04:18;101374.29;;;8.78;100.00
13367;BME280;6752;52.612;13.630;2023-02-16T21:09:20;101379.27;;;8.67;100.00
13367;BME280;6752;52.612;13.630;2023-02-16T21:14:23;101360.17;;;8.60;100.00
13367;BME280;6752;52.612;13.630;2023-02-16T21:19:25;101362.50;;;8.45;100.00
13367;BME280;6752;52.612;13.630;2023-02-16T21:24:27;101350.72;;;8.49;100.00
13367;BME280;6752;52.612;13.630;2023-02-16T21:29:29;101348.75;;;8.50;100.00
13367;BME280;6752;52.612;13.630;2023-02-16T21:34:32;101341.93;;;8.54;100.00
13367;BME280;6752;52.612;13.630;2023-02-16T21:39:34;101330.83;;;8.53;100.00
13367;BME280;6752;52.612;13.630;2023-02-16T21:44:55;101331.38;;;8.48;100.00
13367;BME280;6752;52.612;13.630;2023-02-16T21:49:58;101319.73;;;8.43;100.00
13367;BME280;6752;52.612;13.630;2023-02-16T21:55:00;101313.39;;;8.36;100.00
13367;BME280;6752;52.612;13.630;2023-02-16T22:00:21;101316.39;;;8.34;100.00
13367;BME280;6752;52.612;13.630;2023-02-16T22:05:23;101305.33;;;8.28;100.00
13367;BME280;6752;52.612;13.630;2023-02-16T22:10:26;101309.59;;;8.19;100.00
13367;BME280;6752;52.612;13.630;2023-02-16T22:15:28;101299.19;;;8.23;100.00
13367;BME280;6752;52.612;13.630;2023-02-16T22:20:31;101296.18;;;8.25;100.00
13367;BME280;6752;52.612;13.630;2023-02-16T22:25:36;101299.19;;;8.30;100.00
13367;BME280;6752;52.612;13.630;2023-02-16T22:30:35;101291.91;;;8.16;100.00
13367;BME280;6752;52.612;13.630;2023-02-16T22:35:37;101292.13;;;8.18;100.00
13367;BME280;6752;52.612;13.630;2023-02-16T22:40:40;101284.09;;;8.02;100.00
13367;BME280;6752;52.612;13.630;2023-02-16T22:45:42;101287.34;;;8.09;100.00
13367;BME280;6752;52.612;13.630;2023-02-16T22:50:44;101288.38;;;8.08;100.00
13367;BME280;6752;52.612;13.630;2023-02-16T22:55:47;101289.73;;;8.19;100.00
13367;BME280;6752;52.612;13.630;2023-02-16T23:00:49;101286.11;;;8.12;100.00
13367;BME280;6752;52.612;13.630;2023-02-16T23:05:51;101281.06;;;8.09;100.00
13367;BME280;6752;52.612;13.630;2023-02-16T23:10:53;101276.73;;;8.14;100.00
13367;BME280;6752;52.612;13.630;2023-02-16T23:16:03;101273.98;;;8.04;100.00
13367;BME280;6752;52.612;13.630;2023-02-16T23:21:08;101272.02;;;8.12;100.00
13367;BME280;6752;52.612;13.630;2023-02-16T23:26:09;101265.09;;;8.02;100.00
13367;BME280;6752;52.612;13.630;2023-02-16T23:31:12;101264.92;;;7.96;100.00
13367;BME280;6752;52.612;13.630;2023-02-16T23:36:14;101263.42;;;7.94;100.00
13367;BME280;6752;52.612;13.630;2023-02-16T23:41:16;101263.66;;;7.96;100.00
13367;BME280;6752;52.612;13.630;2023-02-16T23:46:18;101270.12;;;7.95;100.00
13367;BME280;6752;52.612;13.630;2023-02-16T23:51:21;101255.86;;;7.89;100.00
13367;BME280;6752;52.612;13.630;2023-02-16T23:56:24;101256.03;;;7.95;100.00
